עמוד ראשי
METAR-TAF:

METAR-TAF

שדות תעופה :

פרובידנסיה, קולומביה

קו רוחב: 13-22N, קו אורך: 081-21W, גובה: 6מטר

תצפית מזג אוויר נוכחית

הדו"ח נערך לפני 39דקות, בשעה 16:00 UTC
רוח 10קשר מכיוון מזרח/צפון-מזרח, משתנה בין צפון-מזרח ו דרום-מזרח
טמפרטורת 31 צלסיוס
לחות 79%
לחץ 1014 hPa
ראות 10 קילומטר או יותר
עננים פזורים בגובה 1700רגל

METAR: SKPV 241600Z 07010KT 050V140 9999 SCT017 31/27 Q1014

זמן: 11:39 (16:39 UTC)


TAF: חסר

תצפיות ותחזיות מזג אוויר לגבי יותר מ- 4,000 שדות תעופה ברחבי העולם. דוחות METAR ו- TAF.

התחנות הזמינות מסומנות בנקודות צהובות ואדומות על גבי המפה.

העבר את העכבר לנקודה הצבעונית על מנת לראות את שם התחנה.

לאחר מכן, לחץ כדי לראות את תוכן ואת תחזיות מזג האוויר.

כדי לשנות את המפה: לחץ על הכפתורים הירוקים עם הפלוס השחור כדי להתקרב; על הכפתור הירוק עם המקף כדי להתרחק; או בחיצים הירוקים למפות סמוכות.


METAR-TAF: